Time;durP1;ratioP1;P1;durP2;ratioP2;P2;SDS_P1;SDS_P2;PMS_P1;PMS_P2;Temp;Humidity;BMP_temperature;BMP_pressure;BME280_temperature;BME280_humidity;BME280_pressure;Samples;Min_cycle;Max_cycle;Signal;HPM_P1;HPM_P2
2022/10/16 00:02:23;;;;;;;64.90;29.73;;;11.60;99.90;10.90;100068;;;;553515;254;24144;-75
2022/10/16 00:04:54;;;;;;;55.33;29.93;;;11.60;99.90;10.90;100070;;;;553423;255;24222;-75
2022/10/16 00:07:22;;;;;;;69.97;33.53;;;11.60;99.90;10.90;100067;;;;562047;252;24142;-76
2022/10/16 00:09:47;;;;;;;61.00;32.63;;;11.60;99.90;10.90;100068;;;;552776;255;24183;-76
2022/10/16 00:12:15;;;;;;;65.77;30.63;;;11.60;99.90;11.00;100074;;;;553446;255;24169;-77
2022/10/16 00:14:43;;;;;;;61.03;29.90;;;11.70;99.90;11.00;100077;;;;553369;255;24232;-76
2022/10/16 00:17:12;;;;;;;55.60;28.60;;;11.80;99.90;11.10;100076;;;;554196;255;24146;-76
2022/10/16 00:19:40;;;;;;;59.87;29.70;;;11.70;99.90;11.20;100073;;;;553544;255;24203;-76
2022/10/16 00:22:08;;;;;;;55.20;27.27;;;11.90;99.90;11.20;100067;;;;553551;255;24157;-76
2022/10/16 00:24:39;;;;;;;62.93;27.73;;;12.00;99.90;11.30;100074;;;;553242;255;24251;-77
2022/10/16 00:27:04;;;;;;;73.97;28.73;;;11.90;99.90;11.40;100067;;;;553729;255;24238;-75
2022/10/16 00:29:32;;;;;;;58.90;28.17;;;12.00;99.90;11.40;100074;;;;554061;255;24153;-76
2022/10/16 00:32:00;;;;;;;54.33;26.83;;;12.10;99.90;11.50;100073;;;;553899;255;24157;-77
2022/10/16 00:34:28;;;;;;;56.27;27.00;;;12.10;99.90;11.60;100069;;;;553631;255;24172;-77
2022/10/16 00:36:56;;;;;;;66.70;25.43;;;12.20;99.90;11.70;100076;;;;553688;255;24172;-76
2022/10/16 00:39:24;;;;;;;57.37;26.80;;;12.30;99.90;11.80;100065;;;;563738;255;24126;-79
2022/10/16 00:41:52;;;;;;;58.13;24.97;;;12.50;99.90;12.00;100080;;;;554690;255;24144;-77
2022/10/16 00:44:44;;;;;;;49.47;24.00;;;12.60;99.90;12.10;100087;;;;554528;255;24137;-76
2022/10/16 00:47:12;;;;;;;57.23;27.70;;;12.70;99.90;12.20;100089;;;;553096;255;25207;-78
2022/10/16 00:49:40;;;;;;;58.77;26.63;;;12.80;99.90;12.20;100093;;;;553336;255;24162;-76
2022/10/16 00:52:09;;;;;;;57.67;25.70;;;12.90;99.90;12.30;100100;;;;553732;255;24135;-76
2022/10/16 00:54:37;;;;;;;57.30;26.70;;;12.90;99.90;12.40;100105;;;;553726;255;24223;-76
2022/10/16 00:57:06;;;;;;;62.07;26.90;;;13.00;99.90;12.40;100095;;;;554135;253;24188;-77
2022/10/16 00:59:38;;;;;;;45.00;24.43;;;13.10;99.90;12.50;100094;;;;555535;254;24183;-80
2022/10/16 01:02:11;;;;;;;59.73;25.00;;;13.10;99.90;12.50;100097;;;;555656;254;24242;-80
2022/10/16 01:04:39;;;;;;;52.37;24.63;;;13.10;99.90;12.50;100100;;;;554429;254;24138;-79
2022/10/16 01:07:46;;;;;;;53.83;25.43;;;13.10;99.90;12.50;100100;;;;554393;254;24161;-76
2022/10/16 01:10:26;;;;;;;57.77;26.83;;;13.20;99.90;12.50;100087;;;;562941;254;24143;-77
2022/10/16 01:13:12;;;;;;;54.77;25.23;;;13.20;99.90;12.60;100080;;;;550764;254;24150;-76
2022/10/16 01:15:57;;;;;;;55.63;26.00;;;13.20;99.90;12.60;100085;;;;554204;255;24163;-75
2022/10/16 01:18:32;;;;;;;55.90;24.00;;;13.20;99.90;12.60;100096;;;;553285;255;24164;-76
2022/10/16 01:21:09;;;;;;;56.90;23.80;;;13.30;99.90;12.70;100088;;;;549071;255;24155;-76
2022/10/16 01:24:00;;;;;;;50.27;23.70;;;13.30;99.90;12.70;100092;;;;553514;255;24187;-76
2022/10/16 01:26:37;;;;;;;57.27;25.57;;;13.30;99.90;12.70;100093;;;;553822;255;24174;-76
2022/10/16 01:29:08;;;;;;;52.87;24.87;;;13.30;99.90;12.70;100088;;;;553488;255;24184;-78
2022/10/16 01:31:36;;;;;;;47.37;24.80;;;13.40;99.90;12.70;100096;;;;554116;255;24176;-78
2022/10/16 01:34:19;;;;;;;53.50;24.80;;;13.40;99.90;12.70;100089;;;;553077;255;24277;-76
2022/10/16 01:36:55;;;;;;;51.87;25.10;;;13.40;99.90;12.80;100096;;;;553771;255;24153;-77
2022/10/16 01:39:23;;;;;;;42.80;22.00;;;13.40;99.90;12.80;100098;;;;552855;255;24194;-76
2022/10/16 01:41:57;;;;;;;48.77;23.10;;;13.40;99.90;12.80;100102;;;;561691;255;24169;-75
2022/10/16 01:44:27;;;;;;;49.90;24.30;;;13.40;99.90;12.80;100102;;;;552905;255;24269;-77
2022/10/16 01:46:59;;;;;;;50.50;24.13;;;13.50;99.90;12.90;100102;;;;562033;251;24165;-76
2022/10/16 01:49:23;;;;;;;48.57;24.07;;;13.50;99.90;12.90;100110;;;;553690;255;24142;-77
2022/10/16 01:51:51;;;;;;;47.43;24.93;;;13.50;99.90;12.90;100110;;;;553749;255;24181;-77
2022/10/16 01:54:19;;;;;;;46.60;23.83;;;13.50;99.90;12.90;100121;;;;553163;255;24141;-76
2022/10/16 01:56:47;;;;;;;46.93;23.17;;;13.60;99.90;12.90;100117;;;;553010;255;24181;-76
2022/10/16 01:59:15;;;;;;;47.10;23.07;;;13.60;99.90;12.90;100106;;;;553099;255;24145;-77
2022/10/16 02:01:43;;;;;;;46.27;23.93;;;13.60;99.90;12.90;100096;;;;553021;255;24307;-76
2022/10/16 02:04:23;;;;;;;44.00;22.37;;;13.60;99.90;12.90;100099;;;;553224;255;24150;-75
2022/10/16 02:06:51;;;;;;;41.33;22.57;;;13.60;99.90;13.00;100097;;;;553236;255;24184;-75
2022/10/16 02:09:19;;;;;;;41.93;21.80;;;13.60;99.90;12.90;100089;;;;563148;250;24146;-76
2022/10/16 02:11:48;;;;;;;40.03;20.80;;;13.60;99.90;12.90;100092;;;;554481;254;24176;-76
2022/10/16 02:14:18;;;;;;;34.17;20.27;;;13.50;99.90;12.80;100087;;;;554634;254;24153;-75
2022/10/16 02:16:43;;;;;;;36.20;21.07;;;13.40;99.90;12.70;100096;;;;554584;254;24152;-76
2022/10/16 02:19:11;;;;;;;32.20;19.13;;;13.40;99.90;12.60;100094;;;;554156;254;24209;-76
2022/10/16 02:21:57;;;;;;;36.30;19.57;;;13.30;99.90;12.50;100091;;;;553794;254;24174;-75
2022/10/16 02:24:27;;;;;;;36.73;19.63;;;13.20;99.90;12.40;100084;;;;553945;254;24221;-75
2022/10/16 02:27:13;;;;;;;34.47;20.93;;;13.10;99.90;12.30;100079;;;;553351;255;24172;-75
2022/10/16 02:29:44;;;;;;;42.07;19.53;;;13.00;99.90;12.30;100090;;;;554164;255;24155;-76
2022/10/16 02:32:13;;;;;;;34.07;19.23;;;12.90;99.90;12.20;100088;;;;562217;255;24141;-75
2022/10/16 02:34:43;;;;;;;32.60;18.23;;;12.80;99.90;12.10;100088;;;;553236;255;24180;-78
2022/10/16 02:37:11;;;;;;;34.67;20.27;;;12.80;99.90;12.10;100078;;;;554487;254;24169;-75
2022/10/16 02:39:36;;;;;;;37.30;18.83;;;12.70;99.90;12.10;100079;;;;554340;255;24167;-76
2022/10/16 02:42:04;;;;;;;28.97;17.40;;;12.70;99.90;12.00;100080;;;;553685;255;24189;-75
2022/10/16 02:44:32;;;;;;;36.30;19.50;;;12.70;99.90;12.00;100086;;;;553473;255;24200;-75
2022/10/16 02:47:00;;;;;;;32.33;18.67;;;12.60;99.90;12.00;100086;;;;562074;251;24196;-76
2022/10/16 02:49:28;;;;;;;34.60;19.47;;;12.60;99.90;11.90;100088;;;;554010;255;24189;-77
2022/10/16 02:51:56;;;;;;;29.87;17.13;;;12.60;99.90;11.90;100105;;;;554080;255;24193;-77
2022/10/16 02:54:25;;;;;;;28.77;17.30;;;12.60;99.90;12.00;100092;;;;553431;255;24130;-76
2022/10/16 02:56:52;;;;;;;25.60;17.80;;;12.60;99.90;12.00;100083;;;;553252;255;24196;-75
2022/10/16 02:59:22;;;;;;;34.43;19.13;;;12.60;99.90;12.00;100090;;;;553551;255;24200;-76
2022/10/16 03:01:50;;;;;;;29.40;18.77;;;12.60;99.90;12.00;100088;;;;553160;255;25368;-75
2022/10/16 03:04:17;;;;;;;45.17;28.50;;;12.60;99.90;12.00;100086;;;;548049;255;35862;-76
2022/10/16 03:06:46;;;;;;;35.60;22.63;;;12.60;99.90;12.00;100081;;;;553039;255;25204;-76
2022/10/16 03:09:15;;;;;;;36.37;21.50;;;12.70;99.90;12.10;100077;;;;553300;255;24149;-77
2022/10/16 03:11:43;;;;;;;32.37;19.17;;;12.70;99.90;12.10;100073;;;;553320;255;24135;-75
2022/10/16 03:14:12;;;;;;;32.57;19.97;;;12.70;99.90;12.10;100078;;;;552904;255;24220;-76
2022/10/16 03:16:40;;;;;;;32.13;18.97;;;12.70;99.90;12.10;100070;;;;553065;255;24149;-76
2022/10/16 03:19:08;;;;;;;31.50;18.30;;;12.70;99.90;12.10;100080;;;;552911;255;24264;-75
2022/10/16 03:21:36;;;;;;;35.80;19.43;;;12.70;99.90;12.10;100075;;;;554041;254;24207;-75
2022/10/16 03:24:07;;;;;;;32.47;19.00;;;12.70;99.90;12.10;100063;;;;554127;254;24137;-76
2022/10/16 03:26:32;;;;;;;36.60;19.87;;;12.70;99.90;12.10;100066;;;;554532;254;24168;-81
2022/10/16 03:29:00;;;;;;;30.03;19.07;;;12.80;99.90;12.20;100078;;;;554928;254;24175;-82
2022/10/16 03:31:28;;;;;;;31.33;17.97;;;12.80;99.90;12.20;100086;;;;554913;254;24128;-76
2022/10/16 03:33:56;;;;;;;31.13;18.13;;;12.90;99.90;12.30;100100;;;;555433;254;25238;-78
2022/10/16 03:36:23;;;;;;;34.27;18.87;;;12.90;99.90;12.40;100091;;;;555048;254;24179;-79
2022/10/16 03:38:51;;;;;;;28.53;18.33;;;13.00;99.90;12.40;100082;;;;554728;255;24141;-83
2022/10/16 03:41:19;;;;;;;32.27;19.83;;;13.10;99.90;12.50;100090;;;;554498;255;24171;-81
2022/10/16 03:43:47;;;;;;;32.23;18.57;;;13.10;99.90;12.50;100094;;;;554627;255;24173;-80
2022/10/16 03:46:15;;;;;;;33.17;19.30;;;13.20;99.90;12.60;100076;;;;554790;255;24144;-82
2022/10/16 03:48:44;;;;;;;31.00;19.03;;;13.20;99.90;12.60;100077;;;;553679;255;24122;-75
2022/10/16 03:51:13;;;;;;;32.83;19.90;;;13.30;99.90;12.60;100082;;;;553546;255;24133;-75
2022/10/16 03:53:41;;;;;;;33.43;20.67;;;13.30;99.90;12.70;100086;;;;553501;255;24134;-75
2022/10/16 03:56:12;;;;;;;29.97;19.40;;;13.30;99.90;12.70;100069;;;;553459;255;24173;-76
2022/10/16 03:58:37;;;;;;;33.87;19.47;;;13.30;99.90;12.70;100087;;;;553140;255;24148;-76
2022/10/16 04:01:05;;;;;;;31.13;20.87;;;13.30;99.90;12.70;100081;;;;553325;255;24131;-75
2022/10/16 04:03:33;;;;;;;35.80;19.30;;;13.30;99.90;12.70;100081;;;;553991;255;24193;-76
2022/10/16 04:06:01;;;;;;;32.33;19.57;;;13.40;99.90;12.70;100078;;;;553280;255;24145;-75
2022/10/16 04:08:29;;;;;;;30.57;18.20;;;13.40;99.90;12.70;100075;;;;553288;255;24172;-77
2022/10/16 04:10:57;;;;;;;30.67;19.20;;;13.30;99.90;12.70;100077;;;;553094;255;24130;-77
2022/10/16 04:13:25;;;;;;;33.23;19.20;;;13.40;99.90;12.70;100084;;;;552898;255;24190;-75
2022/10/16 04:15:53;;;;;;;30.67;18.70;;;13.30;99.90;12.70;100093;;;;552808;255;24149;-75
2022/10/16 04:18:21;;;;;;;36.47;18.53;;;13.40;99.90;12.80;100101;;;;553122;255;24134;-76
2022/10/16 04:20:50;;;;;;;30.17;18.60;;;13.40;99.90;12.80;100094;;;;553272;255;24209;-77
2022/10/16 04:23:18;;;;;;;35.77;19.43;;;13.40;99.90;12.70;100099;;;;553185;255;24206;-76
2022/10/16 04:25:46;;;;;;;31.57;18.93;;;13.40;99.90;12.70;100106;;;;553179;255;24168;-76
2022/10/16 04:28:14;;;;;;;37.50;19.90;;;13.40;99.90;12.80;100101;;;;553465;255;24133;-76
2022/10/16 04:30:42;;;;;;;30.93;18.50;;;13.40;99.90;12.80;100111;;;;553356;255;24164;-76
2022/10/16 04:33:12;;;;;;;32.83;20.67;;;13.40;99.90;12.80;100103;;;;554663;254;24265;-76
2022/10/16 04:35:37;;;;;;;32.23;19.70;;;13.50;99.90;12.80;100102;;;;552817;258;24175;-76
2022/10/16 04:38:05;;;;;;;38.73;20.80;;;13.50;99.90;12.80;100111;;;;573990;246;24124;-76
2022/10/16 04:40:36;;;;;;;32.10;19.53;;;13.50;99.90;12.80;100117;;;;554847;254;24207;-77
2022/10/16 04:43:01;;;;;;;37.33;21.73;;;13.50;99.90;12.80;100108;;;;554432;254;24176;-77
2022/10/16 04:45:29;;;;;;;31.53;20.40;;;13.50;99.90;12.80;100113;;;;554662;254;24204;-76
2022/10/16 04:48:00;;;;;;;41.63;21.57;;;13.50;99.90;12.80;100108;;;;554456;254;24165;-78
2022/10/16 04:50:28;;;;;;;37.53;21.47;;;13.50;99.90;12.80;100107;;;;553934;255;24143;-76
2022/10/16 04:52:56;;;;;;;33.87;20.80;;;13.50;99.90;12.80;100114;;;;553688;255;24150;-76
2022/10/16 04:55:24;;;;;;;34.93;20.33;;;13.50;99.90;12.90;100117;;;;553689;255;24184;-75
2022/10/16 04:57:55;;;;;;;37.37;20.87;;;13.50;99.90;12.90;100118;;;;553658;255;24166;-75
2022/10/16 05:00:23;;;;;;;34.57;21.03;;;13.50;99.90;12.90;100116;;;;554203;255;24180;-75
2022/10/16 05:02:48;;;;;;;40.30;21.73;;;13.50;99.90;12.90;100117;;;;553272;255;24149;-77
2022/10/16 05:05:19;;;;;;;32.03;21.27;;;13.60;99.90;12.90;100110;;;;553635;255;24173;-75
2022/10/16 05:07:45;;;;;;;38.33;20.97;;;13.60;99.90;12.90;100112;;;;554287;255;24153;-76
2022/10/16 05:10:14;;;;;;;37.87;20.83;;;13.60;99.90;12.90;100109;;;;553363;255;25192;-77
2022/10/16 05:12:41;;;;;;;37.07;22.70;;;13.60;99.90;12.90;100111;;;;552952;251;24172;-76
2022/10/16 05:15:14;;;;;;;38.77;22.10;;;13.60;99.90;13.00;100120;;;;553364;255;24158;-76
2022/10/16 05:17:37;;;;;;;40.23;23.27;;;13.60;99.90;13.00;100111;;;;552981;255;24146;-77
2022/10/16 05:20:06;;;;;;;41.60;23.07;;;13.70;99.90;13.00;100113;;;;552946;255;24213;-76
2022/10/16 05:22:33;;;;;;;42.13;23.00;;;13.70;99.90;13.00;100111;;;;561973;255;24174;-76
2022/10/16 05:25:01;;;;;;;38.43;24.60;;;13.70;99.90;13.00;100112;;;;552973;255;24188;-76
2022/10/16 05:27:29;;;;;;;38.10;22.80;;;13.70;99.90;13.00;100128;;;;553722;255;24151;-79
2022/10/16 05:29:57;;;;;;;41.13;24.83;;;13.70;99.90;13.00;100131;;;;554078;255;24176;-80
2022/10/16 05:32:25;;;;;;;40.90;24.63;;;13.70;99.90;13.10;100133;;;;554035;255;24125;-80
2022/10/16 05:34:53;;;;;;;41.40;23.17;;;13.70;99.90;13.10;100124;;;;554097;255;24133;-80
2022/10/16 05:37:21;;;;;;;37.90;23.10;;;13.80;99.90;13.10;100123;;;;554379;255;24146;-79
2022/10/16 05:39:49;;;;;;;41.07;23.77;;;13.80;99.90;13.10;100125;;;;554247;255;24130;-78
2022/10/16 05:42:18;;;;;;;42.23;23.70;;;13.80;99.90;13.10;100133;;;;553679;255;24156;-76
2022/10/16 05:44:46;;;;;;;37.97;23.67;;;13.80;99.90;13.20;100123;;;;554547;254;24148;-75
2022/10/16 05:47:15;;;;;;;42.27;24.97;;;13.80;99.90;13.20;100119;;;;554528;254;24202;-75
2022/10/16 05:49:44;;;;;;;43.40;26.00;;;13.90;99.90;13.20;100133;;;;554119;254;24172;-77
2022/10/16 05:52:12;;;;;;;35.20;23.27;;;13.90;99.90;13.20;100140;;;;554111;254;24134;-76
2022/10/16 05:54:41;;;;;;;48.10;26.13;;;13.90;99.90;13.20;100140;;;;553756;254;24171;-76
2022/10/16 05:57:10;;;;;;;41.23;25.33;;;13.90;99.90;13.30;100139;;;;553849;254;24188;-76
2022/10/16 05:59:38;;;;;;;41.50;25.80;;;14.00;99.90;13.30;100144;;;;553866;254;24149;-75
2022/10/16 06:02:06;;;;;;;42.27;26.17;;;14.00;99.90;13.30;100147;;;;553751;255;24172;-76
2022/10/16 06:04:34;;;;;;;40.00;26.03;;;14.00;99.90;13.40;100159;;;;553568;255;24240;-76
2022/10/16 06:07:03;;;;;;;48.90;35.47;;;14.10;99.90;13.40;100163;;;;548817;255;37623;-75
2022/10/16 06:09:31;;;;;;;39.63;27.90;;;14.10;99.90;13.40;100159;;;;553592;255;24138;-75
2022/10/16 06:11:59;;;;;;;43.50;25.53;;;14.10;99.90;13.40;100155;;;;553239;255;24176;-76
2022/10/16 06:14:27;;;;;;;41.00;26.83;;;14.10;99.90;13.40;100181;;;;553204;255;24163;-76
2022/10/16 06:16:55;;;;;;;39.20;25.87;;;14.10;99.90;13.50;100169;;;;553311;255;24144;-76
2022/10/16 06:19:22;;;;;;;40.17;26.13;;;14.20;99.90;13.50;100171;;;;553162;255;24184;-76
2022/10/16 06:21:50;;;;;;;42.53;26.10;;;14.20;99.90;13.50;100174;;;;553098;255;24146;-76
2022/10/16 06:24:18;;;;;;;39.07;24.90;;;14.20;99.90;13.50;100180;;;;552997;255;24155;-76
2022/10/16 06:26:46;;;;;;;42.53;27.60;;;14.20;99.90;13.50;100190;;;;553110;255;24188;-75
2022/10/16 06:29:14;;;;;;;39.90;24.57;;;14.20;99.90;13.50;100194;;;;552984;255;24316;-75
2022/10/16 06:31:42;;;;;;;33.83;24.77;;;14.20;99.90;13.60;100192;;;;552923;255;24140;-76
2022/10/16 06:34:11;;;;;;;33.30;24.10;;;14.20;99.90;13.60;100195;;;;553057;255;24266;-75
2022/10/16 06:36:38;;;;;;;35.63;25.30;;;14.20;99.90;13.60;100204;;;;552885;255;24171;-76
2022/10/16 06:39:07;;;;;;;33.97;24.50;;;14.30;99.90;13.60;100200;;;;554126;255;24153;-75
2022/10/16 06:41:34;;;;;;;37.03;25.80;;;14.30;99.90;13.60;100202;;;;553382;255;24216;-75
2022/10/16 06:44:02;;;;;;;39.07;26.43;;;14.30;99.90;13.60;100196;;;;553766;255;24134;-75
2022/10/16 06:46:30;;;;;;;37.73;23.77;;;14.30;99.90;13.60;100189;;;;560097;252;24123;-77
2022/10/16 06:48:58;;;;;;;38.20;24.67;;;14.30;99.90;13.60;100205;;;;553794;255;24213;-76
2022/10/16 06:51:26;;;;;;;39.87;25.77;;;14.30;99.90;13.60;100208;;;;562228;255;24122;-77
2022/10/16 06:53:53;;;;;;;41.70;25.50;;;14.30;99.90;13.60;100201;;;;553432;255;24133;-80
2022/10/16 06:56:24;;;;;;;40.83;27.30;;;14.30;99.90;13.60;100193;;;;555490;254;24144;-78
2022/10/16 06:58:52;;;;;;;40.23;26.20;;;14.20;99.90;13.50;100192;;;;554238;254;24196;-76
2022/10/16 07:01:20;;;;;;;36.43;24.80;;;14.20;99.90;13.50;100206;;;;554850;254;24076;-78
2022/10/16 07:03:48;;;;;;;43.10;25.93;;;14.10;99.90;13.50;100201;;;;562993;254;24028;-78
2022/10/16 07:06:16;;;;;;;38.93;26.80;;;14.10;99.90;13.60;100206;;;;552941;256;24199;-80
2022/10/16 07:08:44;;;;;;;40.47;25.70;;;14.20;99.90;13.60;100199;;;;549290;259;24228;-79
2022/10/16 07:11:12;;;;;;;54.20;39.77;;;14.20;99.90;13.70;100205;;;;556775;251;38668;-79
2022/10/16 07:13:40;;;;;;;45.63;30.63;;;14.30;99.90;13.80;100205;;;;565079;250;24220;-80
2022/10/16 07:16:13;;;;;;;43.27;28.73;;;14.40;99.90;13.90;100208;;;;554080;255;24125;-81
2022/10/16 07:18:42;;;;;;;40.00;27.23;;;14.50;99.90;14.00;100201;;;;546994;260;25278;-81
2022/10/16 07:21:19;;;;;;;40.30;27.50;;;14.60;99.90;14.10;100205;;;;543560;257;24125;-81
2022/10/16 07:23:46;;;;;;;44.90;28.07;;;14.70;99.90;14.10;100206;;;;576481;246;24182;-81
2022/10/16 07:26:14;;;;;;;45.23;27.70;;;14.80;99.90;14.10;100219;;;;557278;257;24159;-81
2022/10/16 07:28:42;;;;;;;41.40;26.50;;;14.80;99.90;14.10;100213;;;;544897;259;24176;-81
2022/10/16 07:31:11;;;;;;;41.37;26.07;;;14.80;99.90;14.10;100218;;;;553637;255;24116;-81
2022/10/16 07:33:39;;;;;;;35.17;25.80;;;14.80;99.90;14.20;100217;;;;553104;255;24104;-82
2022/10/16 07:36:11;;;;;;;40.20;26.37;;;14.80;99.90;14.20;100214;;;;567371;246;24059;-83
2022/10/16 07:38:35;;;;;;;37.70;25.10;;;14.90;99.90;14.20;100234;;;;558329;254;24201;-81
2022/10/16 07:41:04;;;;;;;37.97;25.53;;;14.90;99.90;14.20;100237;;;;553462;253;24223;-81
2022/10/16 07:43:32;;;;;;;36.57;25.63;;;14.90;99.90;14.20;100234;;;;553843;255;24138;-81
2022/10/16 07:46:00;;;;;;;36.30;26.03;;;14.90;99.90;14.30;100234;;;;564348;250;24129;-81
2022/10/16 07:48:31;;;;;;;38.07;26.33;;;15.00;99.90;14.30;100230;;;;544118;260;24148;-80
2022/10/16 07:51:02;;;;;;;36.20;25.00;;;15.00;99.90;14.30;100237;;;;564207;250;24141;-81
2022/10/16 07:53:30;;;;;;;32.27;24.93;;;15.00;99.90;14.30;100236;;;;552037;260;24174;-79
2022/10/16 07:56:00;;;;;;;36.83;25.90;;;15.00;99.90;14.40;100239;;;;562603;250;24194;-81
2022/10/16 07:58:28;;;;;;;32.80;23.60;;;15.10;99.90;14.40;100251;;;;569474;249;24161;-83
2022/10/16 08:00:59;;;;;;;34.20;25.47;;;15.10;99.90;14.50;100236;;;;557477;254;24175;-81
2022/10/16 08:03:24;;;;;;;35.70;23.63;;;15.10;99.90;14.50;100252;;;;554941;254;24126;-80
2022/10/16 08:05:52;;;;;;;33.57;24.73;;;15.20;99.90;14.50;100260;;;;546295;260;24115;-80
2022/10/16 08:08:20;;;;;;;39.37;24.47;;;15.20;99.90;14.60;100261;;;;554760;255;24191;-80
2022/10/16 08:10:48;;;;;;;36.20;24.97;;;15.30;99.90;14.60;100271;;;;570620;248;24116;-80
2022/10/16 08:13:16;;;;;;;36.60;26.47;;;15.40;99.90;14.70;100280;;;;557367;254;24158;-80
2022/10/16 08:15:45;;;;;;;32.93;23.10;;;15.40;99.90;14.80;100282;;;;575031;246;25143;-80
2022/10/16 08:18:13;;;;;;;34.93;23.77;;;15.40;99.90;14.80;100285;;;;557016;255;24173;-81
2022/10/16 08:20:41;;;;;;;33.10;23.07;;;15.40;99.90;14.80;100283;;;;583936;245;24067;-81
2022/10/16 08:23:13;;;;;;;31.03;22.57;;;15.50;99.90;14.80;100283;;;;556919;253;24132;-79
2022/10/16 08:25:41;;;;;;;28.97;20.70;;;15.50;99.90;14.90;100291;;;;583766;244;24050;-81
2022/10/16 08:28:09;;;;;;;32.87;21.83;;;15.50;99.90;14.90;100288;;;;564106;252;24168;-77
2022/10/16 08:30:37;;;;;;;27.80;20.53;;;15.50;99.90;14.90;100288;;;;563667;246;24177;-79
2022/10/16 08:33:06;;;;;;;29.77;21.47;;;15.60;99.90;15.00;100286;;;;553271;255;24135;-80
2022/10/16 08:35:37;;;;;;;31.67;20.73;;;15.60;99.90;15.00;100291;;;;562882;255;24137;-79
2022/10/16 08:38:01;;;;;;;30.87;21.27;;;15.70;99.90;15.10;100293;;;;553448;255;24146;-80
2022/10/16 08:40:31;;;;;;;29.03;20.80;;;15.70;99.90;15.10;100298;;;;562181;250;24159;-80
2022/10/16 08:43:22;;;;;;;28.13;21.90;;;15.70;99.90;15.10;100299;;;;558727;257;24173;-82
2022/10/16 08:46:17;;;;;;;29.43;21.40;;;15.80;99.90;15.10;100296;;;;553872;255;24137;-80
2022/10/16 08:48:51;;;;;;;28.43;22.07;;;15.80;99.90;15.10;100299;;;;548427;249;24193;-82
2022/10/16 08:51:19;;;;;;;29.80;21.20;;;15.80;99.90;15.20;100298;;;;570360;249;24108;-82
2022/10/16 08:53:50;;;;;;;27.57;20.17;;;15.90;99.90;15.20;100305;;;;563406;250;24175;-80
2022/10/16 08:56:18;;;;;;;27.47;19.33;;;15.90;99.90;15.20;100302;;;;560015;250;24152;-78
2022/10/16 08:58:49;;;;;;;22.43;18.47;;;15.90;99.90;15.20;100303;;;;544866;259;24161;-80
2022/10/16 09:01:16;;;;;;;28.17;19.53;;;15.90;99.90;15.30;100300;;;;543047;260;24177;-80
2022/10/16 09:03:53;;;;;;;24.67;18.20;;;15.90;99.90;15.30;100304;;;;551948;255;24126;-80
2022/10/16 09:06:27;;;;;;;25.63;19.03;;;15.90;99.90;15.40;100300;;;;543019;260;24229;-80
2022/10/16 09:09:41;;;;;;;26.97;18.37;;;16.00;99.90;15.60;100309;;;;556161;250;24139;-79
2022/10/16 09:12:18;;;;;;;26.30;18.00;;;16.10;99.90;15.70;100314;;;;563397;250;24112;-80
2022/10/16 09:15:35;;;;;;;22.80;18.63;;;16.30;99.90;15.80;100305;;;;563500;250;24107;-82
2022/10/16 09:18:15;;;;;;;23.33;18.13;;;16.50;99.90;16.00;100307;;;;562672;248;24165;-81
2022/10/16 09:20:46;;;;;;;25.47;17.93;;;16.60;99.90;16.00;100300;;;;559129;250;24141;-79
2022/10/16 09:23:17;;;;;;;21.90;17.63;;;16.70;99.90;16.10;100303;;;;564501;250;24133;-80
2022/10/16 09:25:44;;;;;;;23.87;17.60;;;16.70;99.90;16.00;100310;;;;558166;251;24168;-80
2022/10/16 09:28:12;;;;;;;20.80;16.87;;;16.70;99.90;16.00;100307;;;;563288;254;24139;-81
2022/10/16 09:30:43;;;;;;;20.67;17.23;;;16.70;99.90;16.00;100305;;;;562159;250;24156;-79
2022/10/16 09:33:08;;;;;;;24.70;17.70;;;16.70;99.90;16.10;100308;;;;552392;255;24175;-78
2022/10/16 09:35:39;;;;;;;20.17;16.63;;;16.70;99.90;16.10;100300;;;;564603;250;24118;-80
2022/10/16 09:38:07;;;;;;;29.33;16.87;;;16.70;99.90;16.20;100310;;;;564272;250;24211;-78
2022/10/16 09:40:38;;;;;;;21.07;16.60;;;16.80;99.90;16.20;100320;;;;564656;250;24119;-79
2022/10/16 09:43:25;;;;;;;24.27;18.27;;;16.80;99.90;16.20;100334;;;;563647;250;24324;-79
2022/10/16 09:45:58;;;;;;;19.60;16.30;;;16.80;99.90;16.20;100333;;;;567282;249;24154;-78
2022/10/16 09:48:24;;;;;;;19.03;16.33;;;16.80;99.90;16.20;100331;;;;563677;250;24135;-79
2022/10/16 09:51:00;;;;;;;20.90;16.17;;;16.80;99.90;16.20;100336;;;;553919;255;24156;-80
2022/10/16 09:53:40;;;;;;;19.93;16.33;;;16.80;99.90;16.20;100325;;;;553871;255;24176;-77
2022/10/16 09:56:08;;;;;;;20.33;15.63;;;16.90;99.90;16.30;100330;;;;561885;255;24182;-78
2022/10/16 09:58:37;;;;;;;19.93;15.40;;;16.90;99.90;16.30;100333;;;;558604;255;24219;-78
2022/10/16 10:01:04;;;;;;;17.40;14.07;;;16.90;99.90;16.30;100333;;;;553883;255;24198;-79
2022/10/16 10:03:38;;;;;;;19.50;15.90;;;17.00;99.90;16.30;100336;;;;553876;255;24153;-79
2022/10/16 10:06:21;;;;;;;20.80;15.40;;;16.90;99.90;16.30;100339;;;;553856;255;24182;-78
2022/10/16 10:09:04;;;;;;;17.87;14.77;;;16.90;99.90;16.20;100340;;;;553359;255;24176;-79
2022/10/16 10:11:56;;;;;;;23.50;15.93;;;16.80;99.90;16.10;100346;;;;559385;252;24193;-79
2022/10/16 10:14:39;;;;;;;20.47;14.90;;;16.80;99.90;16.10;100346;;;;560364;251;24171;-80
2022/10/16 10:17:06;;;;;;;20.97;15.53;;;16.80;99.90;16.20;100353;;;;558747;254;24200;-79
2022/10/16 10:19:55;;;;;;;23.50;16.57;;;16.80;99.90;16.20;100357;;;;553813;255;24137;-78
2022/10/16 10:22:32;;;;;;;18.27;15.70;;;16.80;99.90;16.30;100359;;;;552727;255;25242;-79
2022/10/16 10:25:09;;;;;;;21.53;16.40;;;16.80;99.90;16.30;100364;;;;565916;250;24158;-80
2022/10/16 10:27:51;;;;;;;25.83;16.33;;;16.90;99.90;16.30;100369;;;;575301;244;24246;-80
2022/10/16 10:30:55;;;;;;;22.13;16.70;;;16.90;99.90;16.40;100371;;;;558318;249;24165;-80
2022/10/16 10:34:04;;;;;;;21.50;15.30;;;16.90;99.90;16.40;100376;;;;553775;255;24150;-81
2022/10/16 10:36:41;;;;;;;22.33;16.37;;;17.00;99.90;16.50;100368;;;;553416;254;24163;-79
2022/10/16 10:39:09;;;;;;;19.43;15.93;;;17.00;99.90;16.50;100376;;;;553320;254;24174;-80
2022/10/16 10:41:49;;;;;;;20.40;16.40;;;17.10;99.90;16.60;100379;;;;562034;251;24120;-79
2022/10/16 10:44:20;;;;;;;20.80;16.03;;;17.10;99.90;16.70;100377;;;;545216;260;24215;-80
2022/10/16 10:47:06;;;;;;;21.30;16.23;;;17.20;99.90;16.90;100373;;;;563106;250;24114;-81
2022/10/16 10:49:55;;;;;;;17.20;15.37;;;17.50;99.90;17.10;100374;;;;553447;255;24149;-80
2022/10/16 10:52:51;;;;;;;23.60;15.93;;;17.70;99.90;17.20;100377;;;;553900;255;24215;-81
2022/10/16 10:55:54;;;;;;;20.47;15.97;;;17.70;99.90;17.30;100375;;;;553723;255;24125;-81
2022/10/16 10:58:50;;;;;;;21.53;15.40;;;17.90;99.90;17.50;100370;;;;558638;250;24148;-83
2022/10/16 11:01:48;;;;;;;17.93;14.07;;;18.20;99.90;17.60;100379;;;;563807;250;24121;-80
2022/10/16 11:04:40;;;;;;;15.57;13.93;;;18.10;99.90;17.70;100373;;;;563333;250;24179;-81
2022/10/16 11:07:26;;;;;;;18.10;13.43;;;18.20;99.90;17.70;100387;;;;563560;250;24123;-80
2022/10/16 11:09:55;;;;;;;17.90;13.57;;;18.40;99.90;17.90;100376;;;;563288;250;24107;-81
2022/10/16 11:12:32;;;;;;;15.77;14.10;;;18.60;99.90;18.10;100377;;;;560660;246;24162;-80
2022/10/16 11:15:06;;;;;;;15.83;13.73;;;18.60;99.90;18.30;100377;;;;572647;250;24162;-81